Startpagina
METAR-TAF:

METAR-TAF

Vliegvelden :

Stockholm-Arlanda, Zweden

Luchthaven Stockholm-Arlanda

breedte: 59-39N, lengte: 017-57E, hoogte: 38 m

Actueel weer

Dit bericht is 14 minuten geleden gemaakt, om 20:50 UTC
Wind 13 kt uit het zuidoosten
Temperatuur -1°C
Vochtigheid 100%
Druk 988 hPa
Zicht: 1700 m
Gebroken wolken op 600 ft
Geheel bewolkt op 1600 ft
lichte sneeuw

METAR: ESSA 162050Z 14013KT 1700 -SN BKN006 OVC016 M01/M01 Q0988 R01L/520262 R01R/520252 R08/N TEMPO 2500

Tijdstip: 22:04 (21:04 UTC)

Verwachting

Dit bericht is 3 uur en het 34 minuten geleden gemaakt, om 17:30 UTC
Verwachting geldig van 16 om 18 UTC tot 17 om 18 UTC
Wind 15 kt uit het zuidzuidoosten
Zicht: 1400 m
op 800 ft
sneeuw
Tijdelijke
van 16 om 18 UTC tot 17 om 18 UTC
Zicht: 5000 m
Gebroken wolken op 1500 ft
lichte sneeuw

TAF: ESSA 161730Z 1618/1718 15015KT 1400 SN VV008 TEMPO 1618/1718 5000 -SN BKN015

Waarnemingen en weersverwachtingen van meer dan 4000 vliegvelden (METAR en TAF).

De beschikbare stations zijn de gele en rode punten op de kaart.

Ga met uw muis naar het station om de naam te zien.

Klik dan om waarnemingen en weersverwachtingen te zien.

kaart wijzigen: klik op de groene knoppen met een zwart kruis om in te zoomen, op de groene knop met een streepje om uit te zoomen of op de groene pijlen voor aangrenzende kaarten.


METAR-TAF: